createdAt,value
2018-04-25T00:00:43.617Z,99.99
2018-04-25T00:01:43.522Z,99.99
2018-04-25T00:02:43.431Z,99.99
2018-04-25T00:03:43.371Z,99.99
2018-04-25T00:04:43.245Z,99.99
2018-04-25T00:05:43.155Z,99.99
2018-04-25T00:06:43.062Z,99.99
2018-04-25T00:07:42.970Z,99.99
2018-04-25T00:08:43.808Z,99.99
2018-04-25T00:09:42.786Z,99.99
2018-04-25T00:10:42.690Z,99.99
2018-04-25T00:11:42.602Z,99.99
2018-04-25T00:12:42.602Z,99.99
2018-04-25T00:13:42.445Z,99.99
2018-04-25T00:14:42.323Z,99.99
2018-04-25T00:15:42.236Z,99.99
2018-04-25T00:16:42.140Z,99.99
2018-04-25T00:17:42.047Z,99.99
2018-04-25T00:18:41.985Z,99.99
2018-04-25T00:19:41.961Z,99.99
2018-04-25T00:20:41.771Z,99.99
2018-04-25T00:21:41.680Z,99.99
2018-04-25T00:22:41.582Z,99.99
2018-04-25T00:23:41.531Z,99.99
2018-04-25T00:24:41.401Z,99.99
2018-04-25T00:25:41.310Z,99.99
2018-04-25T00:26:41.308Z,99.99
2018-04-25T00:27:41.125Z,99.99
2018-04-25T00:28:41.061Z,99.99
2018-04-25T00:29:40.940Z,99.99
2018-04-25T00:30:40.848Z,99.99
2018-04-25T00:31:40.754Z,99.99
2018-04-25T00:32:40.663Z,99.99
2018-04-25T00:33:40.674Z,99.99
2018-04-25T00:34:40.479Z,99.99
2018-04-25T00:35:40.385Z,99.99
2018-04-25T00:36:40.294Z,99.99
2018-04-25T00:37:40.199Z,99.99
2018-04-25T00:38:40.136Z,99.99
2018-04-25T00:39:40.015Z,99.99
2018-04-25T00:40:40.017Z,99.99
2018-04-25T00:41:39.831Z,99.99
2018-04-25T00:42:39.740Z,99.99
2018-04-25T00:43:39.676Z,99.99
2018-04-25T00:44:39.555Z,99.99
2018-04-25T00:45:39.474Z,99.99
2018-04-25T00:46:39.368Z,99.99
2018-04-25T00:47:39.367Z,99.99
2018-04-25T00:48:39.184Z,99.99
2018-04-25T00:49:39.119Z,99.99
2018-04-25T00:50:38.997Z,99.99
2018-04-25T00:51:38.908Z,99.99
2018-04-25T00:52:38.812Z,99.99
2018-04-25T00:53:38.723Z,99.99
2018-04-25T00:54:38.740Z,99.99
2018-04-25T00:55:38.537Z,99.99
2018-04-25T00:56:38.444Z,99.99
2018-04-25T00:57:38.351Z,99.99
2018-04-25T00:58:38.259Z,99.99
2018-04-25T00:59:38.203Z,99.99
2018-04-25T01:00:38.074Z,99.99
2018-04-25T01:01:38.076Z,99.99
2018-04-25T01:02:37.889Z,99.99
2018-04-25T01:03:37.802Z,99.99
2018-04-25T01:04:37.748Z,99.99
2018-04-25T01:05:37.611Z,99.99
2018-04-25T01:06:37.519Z,99.99
2018-04-25T01:07:37.425Z,99.99
2018-04-25T01:08:37.420Z,99.99
2018-04-25T01:09:37.267Z,99.99
2018-04-25T01:10:37.146Z,99.99
2018-04-25T01:11:37.091Z,99.99
2018-04-25T01:12:36.961Z,99.99
2018-04-25T01:13:36.867Z,99.99
2018-04-25T01:14:38.270Z,99.99
2018-04-25T01:15:36.777Z,99.99
2018-04-25T01:16:36.595Z,99.99
2018-04-25T01:17:36.494Z,99.99
2018-04-25T01:18:36.404Z,99.99
2018-04-25T01:19:36.345Z,99.99
2018-04-25T01:20:36.220Z,99.99
2018-04-25T01:21:36.127Z,99.99
2018-04-25T01:22:36.126Z,99.99
2018-04-25T01:23:35.941Z,99.99
2018-04-25T01:24:35.874Z,99.99
2018-04-25T01:25:35.757Z,99.99
2018-04-25T01:26:35.662Z,99.99
2018-04-25T01:27:35.570Z,99.99
2018-04-25T01:28:35.478Z,99.99
2018-04-25T01:29:35.505Z,99.99
2018-04-25T01:30:35.290Z,99.99
2018-04-25T01:31:35.202Z,99.99
2018-04-25T01:32:35.103Z,99.99
2018-04-25T01:33:35.010Z,99.99
2018-04-25T01:34:34.947Z,99.99
2018-04-25T01:35:34.825Z,99.99
2018-04-25T01:36:34.825Z,99.99
2018-04-25T01:37:34.639Z,99.99
2018-04-25T01:38:34.549Z,99.99
2018-04-25T01:39:34.457Z,99.99
2018-04-25T01:40:34.395Z,99.99
2018-04-25T01:41:34.268Z,99.99
2018-04-25T01:42:34.176Z,99.99
2018-04-25T01:43:34.085Z,99.99
2018-04-25T01:44:33.990Z,99.99
2018-04-25T01:45:33.930Z,99.99
2018-04-25T01:46:33.804Z,99.99
2018-04-25T01:47:33.713Z,99.99
2018-04-25T01:48:33.615Z,99.99
2018-04-25T01:49:33.524Z,99.99
2018-04-25T01:50:33.465Z,99.99
2018-04-25T01:51:33.338Z,99.99
2018-04-25T01:52:33.245Z,99.99
2018-04-25T01:53:33.153Z,99.99
2018-04-25T01:54:33.056Z,99.99
2018-04-25T01:55:32.999Z,99.99
2018-04-25T01:56:32.874Z,99.99
2018-04-25T01:57:32.781Z,99.99
2018-04-25T01:58:32.685Z,99.99
2018-04-25T01:59:32.596Z,99.99
2018-04-25T02:00:32.529Z,99.99
2018-04-25T02:01:32.405Z,99.99
2018-04-25T02:02:32.316Z,99.99
2018-04-25T02:03:32.223Z,99.99
2018-04-25T02:04:32.130Z,99.99
2018-04-25T02:05:32.053Z,99.99
2018-04-25T02:06:31.971Z,99.99
2018-04-25T02:07:31.852Z,99.99
2018-04-25T02:08:32.286Z,99.99
2018-04-25T02:09:31.662Z,99.99
2018-04-25T02:10:31.571Z,99.99
2018-04-25T02:11:31.506Z,99.99
2018-04-25T02:12:31.391Z,99.99
2018-04-25T02:13:31.290Z,99.99
2018-04-25T02:14:31.210Z,99.99
2018-04-25T02:15:31.117Z,99.99
2018-04-25T02:16:31.014Z,99.99
2018-04-25T02:17:30.952Z,99.99
2018-04-25T02:18:30.826Z,99.99
2018-04-25T02:19:30.733Z,99.99
2018-04-25T02:20:30.638Z,99.99
2018-04-25T02:21:30.543Z,99.99
2018-04-25T02:22:30.487Z,99.99
2018-04-25T02:23:30.359Z,99.99
2018-04-25T02:24:30.264Z,99.99
2018-04-25T02:25:30.188Z,99.99
2018-04-25T02:26:30.079Z,99.99
2018-04-25T02:27:30.019Z,99.99
2018-04-25T02:28:29.894Z,99.99
2018-04-25T02:29:29.801Z,99.99
2018-04-25T02:30:29.707Z,99.99
2018-04-25T02:31:29.616Z,99.99
2018-04-25T02:32:29.552Z,99.99
2018-04-25T02:33:29.428Z,99.99
2018-04-25T02:34:29.334Z,99.99
2018-04-25T02:35:29.251Z,99.99
2018-04-25T02:36:29.148Z,99.99
2018-04-25T02:37:29.083Z,99.99
2018-04-25T02:38:28.962Z,99.99
2018-04-25T02:39:28.866Z,99.99
2018-04-25T02:40:28.776Z,99.99
2018-04-25T02:41:28.681Z,99.99
2018-04-25T02:42:28.617Z,99.99
2018-04-25T02:43:28.496Z,99.99
2018-04-25T02:44:28.402Z,99.99
2018-04-25T02:45:28.310Z,99.99
2018-04-25T02:46:28.224Z,99.99
2018-04-25T02:47:28.153Z,99.99
2018-04-25T02:48:28.030Z,99.99
2018-04-25T02:49:27.935Z,99.99
2018-04-25T02:50:27.855Z,99.99
2018-04-25T02:51:27.751Z,99.99
2018-04-25T02:52:27.689Z,99.99
2018-04-25T02:53:27.565Z,99.99
2018-04-25T02:54:27.468Z,99.99
2018-04-25T02:55:27.380Z,99.99
2018-04-25T02:56:27.284Z,99.99
2018-04-25T02:57:27.836Z,99.99
2018-04-25T02:58:27.098Z,99.99
2018-04-25T02:59:27.003Z,99.99
2018-04-25T03:00:26.910Z,99.99
2018-04-25T03:01:26.818Z,99.99
2018-04-25T03:02:26.728Z,99.99
2018-04-25T03:03:26.660Z,99.99
2018-04-25T03:04:26.537Z,99.99
2018-04-25T03:05:26.445Z,99.99
2018-04-25T03:06:26.361Z,99.99
2018-04-25T03:07:26.258Z,99.99
2018-04-25T03:08:26.195Z,99.99
2018-04-25T03:09:26.070Z,99.99
2018-04-25T03:10:25.976Z,99.99
2018-04-25T03:11:25.880Z,99.99
2018-04-25T03:12:25.792Z,99.99
2018-04-25T03:13:25.725Z,99.99
2018-04-25T03:14:25.696Z,99.99
2018-04-25T03:15:25.510Z,99.99
2018-04-25T03:16:25.416Z,99.99
2018-04-25T03:17:25.321Z,99.99
2018-04-25T03:18:25.254Z,99.99
2018-04-25T03:19:25.134Z,99.99
2018-04-25T03:20:25.038Z,99.99
2018-04-25T03:21:24.949Z,99.99
2018-04-25T03:22:24.854Z,99.99
2018-04-25T03:23:24.789Z,99.99
2018-04-25T03:24:24.671Z,99.99
2018-04-25T03:25:24.574Z,99.99
2018-04-25T03:26:24.494Z,99.99
2018-04-25T03:27:24.390Z,99.99
2018-04-25T03:28:24.413Z,99.99
2018-04-25T03:29:24.196Z,99.99
2018-04-25T03:30:24.105Z,99.99
2018-04-25T03:31:24.011Z,99.99
2018-04-25T03:32:23.914Z,99.99
2018-04-25T03:33:23.851Z,99.99
2018-04-25T03:34:23.808Z,99.99
2018-04-25T03:35:23.731Z,99.99
2018-04-25T03:36:23.541Z,99.99
2018-04-25T03:37:23.447Z,99.99
2018-04-25T03:38:23.389Z,99.99
2018-04-25T03:39:23.262Z,99.99
2018-04-25T03:40:23.170Z,99.99
2018-04-25T03:41:23.217Z,99.99
2018-04-25T03:42:23.075Z,99.99
2018-04-25T03:43:22.917Z,99.99
2018-04-25T03:44:22.791Z,99.99
2018-04-25T03:45:22.704Z,99.99
2018-04-25T03:46:22.605Z,99.99
2018-04-25T03:47:22.525Z,99.99
2018-04-25T03:48:22.447Z,99.99
2018-04-25T03:49:22.416Z,99.99
2018-04-25T03:50:22.231Z,99.99
2018-04-25T03:51:22.136Z,99.99
2018-04-25T03:52:22.041Z,99.99
2018-04-25T03:53:21.977Z,99.99
2018-04-25T03:54:21.855Z,99.99
2018-04-25T03:55:21.761Z,99.99
2018-04-25T03:56:21.763Z,99.99
2018-04-25T03:57:21.587Z,99.99
2018-04-25T03:58:21.484Z,99.99
2018-04-25T03:59:21.417Z,99.99
2018-04-25T04:00:21.293Z,99.99
2018-04-25T04:01:21.202Z,99.99
2018-04-25T04:02:21.107Z,99.99
2018-04-25T04:03:21.107Z,99.99
2018-04-25T04:04:20.948Z,99.99
2018-04-25T04:05:20.823Z,99.99
2018-04-25T04:06:20.732Z,99.99
2018-04-25T04:07:20.639Z,99.99
2018-04-25T04:08:20.542Z,99.99
2018-04-25T04:09:20.486Z,99.99
2018-04-25T04:10:20.451Z,99.99
2018-04-25T04:11:20.264Z,99.99
2018-04-25T04:12:20.239Z,99.99
2018-04-25T04:13:20.075Z,99.99
2018-04-25T04:14:20.015Z,99.99
2018-04-25T04:15:19.892Z,99.99
2018-04-25T04:16:19.796Z,99.99
2018-04-25T04:17:19.805Z,99.99
2018-04-25T04:18:19.607Z,99.99
2018-04-25T04:19:21.303Z,99.99
2018-04-25T04:20:19.422Z,99.99
2018-04-25T04:21:19.330Z,99.99
2018-04-25T04:22:19.234Z,99.99
2018-04-25T04:23:19.142Z,99.99
2018-04-25T04:24:19.174Z,99.99
2018-04-25T04:25:18.955Z,99.99
2018-04-25T04:26:18.864Z,99.99
2018-04-25T04:27:18.769Z,99.99
2018-04-25T04:28:18.677Z,99.99
2018-04-25T04:29:18.613Z,99.99
2018-04-25T04:30:18.487Z,99.99
2018-04-25T04:31:18.486Z,99.99
2018-04-25T04:32:18.301Z,99.99
2018-04-25T04:33:18.209Z,99.99
2018-04-25T04:34:18.146Z,99.99
2018-04-25T04:35:18.023Z,99.99
2018-04-25T04:36:17.928Z,99.99
2018-04-25T04:37:17.846Z,99.99
2018-04-25T04:38:17.843Z,99.99
2018-04-25T04:39:17.694Z,99.99
2018-04-25T04:40:17.556Z,99.99
2018-04-25T04:41:17.462Z,99.99
2018-04-25T04:42:17.388Z,99.99
2018-04-25T04:43:17.313Z,99.99
2018-04-25T04:44:17.211Z,99.99
2018-04-25T04:45:17.090Z,99.99
2018-04-25T04:46:16.998Z,99.99
2018-04-25T04:47:16.907Z,99.99
2018-04-25T04:48:16.810Z,99.99
2018-04-25T04:49:16.747Z,99.99
2018-04-25T04:50:16.626Z,99.99
2018-04-25T04:51:16.536Z,99.99
2018-04-25T04:52:16.440Z,99.99
2018-04-25T04:53:16.346Z,99.99
2018-04-25T04:54:16.285Z,99.99
2018-04-25T04:55:16.170Z,99.99
2018-04-25T04:56:16.069Z,99.99
2018-04-25T04:57:16.007Z,99.99
2018-04-25T04:58:15.885Z,99.99
2018-04-25T04:59:15.791Z,99.99
2018-04-25T05:00:15.725Z,99.99
2018-04-25T05:01:15.605Z,99.99
2018-04-25T05:02:15.512Z,99.99
2018-04-25T05:03:15.422Z,99.99
2018-04-25T05:04:15.329Z,99.99
2018-04-25T05:05:15.267Z,99.99
2018-04-25T05:06:15.142Z,99.99
2018-04-25T05:07:15.054Z,99.99
2018-04-25T05:08:14.960Z,99.99
2018-04-25T05:09:14.867Z,99.99
2018-04-25T05:10:14.805Z,99.99
2018-04-25T05:11:14.683Z,99.99
2018-04-25T05:12:14.590Z,99.99
2018-04-25T05:13:14.550Z,99.99
2018-04-25T05:14:14.411Z,99.99
2018-04-25T05:15:14.345Z,99.99
2018-04-25T05:16:14.224Z,99.99
2018-04-25T05:17:14.134Z,99.99
2018-04-25T05:18:14.042Z,99.99
2018-04-25T05:19:13.950Z,99.99
2018-04-25T05:20:13.885Z,99.99
2018-04-25T05:21:13.766Z,99.99
2018-04-25T05:22:13.680Z,99.99
2018-04-25T05:23:13.585Z,99.99
2018-04-25T05:24:13.492Z,99.99
2018-04-25T05:25:13.431Z,99.99
2018-04-25T05:26:13.308Z,99.99
2018-04-25T05:27:13.216Z,99.99
2018-04-25T05:28:13.129Z,99.99
2018-04-25T05:29:13.035Z,99.99
2018-04-25T05:30:12.972Z,99.99
2018-04-25T05:31:12.857Z,99.99
2018-04-25T05:32:12.844Z,99.99
2018-04-25T05:33:12.674Z,99.99
2018-04-25T05:34:12.582Z,99.99
2018-04-25T05:35:12.522Z,99.99
2018-04-25T05:36:12.404Z,99.99
2018-04-25T05:37:12.312Z,99.99
2018-04-25T05:38:12.232Z,99.99
2018-04-25T05:39:12.130Z,99.99
2018-04-25T05:40:12.070Z,99.99
2018-04-25T05:41:11.949Z,99.99
2018-04-25T05:42:11.859Z,99.99
2018-04-25T05:43:11.771Z,99.99
2018-04-25T05:44:11.675Z,99.99
2018-04-25T05:45:11.616Z,99.99
2018-04-25T05:46:11.497Z,99.99
2018-04-25T05:47:11.410Z,99.99
2018-04-25T05:48:11.317Z,99.99
2018-04-25T05:49:11.226Z,99.99
2018-04-25T05:50:11.166Z,99.99
2018-04-25T05:51:11.050Z,99.99
2018-04-25T05:52:10.956Z,99.99
2018-04-25T05:53:10.868Z,99.99
2018-04-25T05:54:10.872Z,99.99
2018-04-25T05:55:10.718Z,99.99
2018-04-25T05:56:10.598Z,99.99
2018-04-25T05:57:10.508Z,99.99
2018-04-25T05:58:10.419Z,99.99
2018-04-25T05:59:10.329Z,99.99
2018-04-25T06:00:10.266Z,99.99
2018-04-25T06:01:10.244Z,99.99
2018-04-25T06:02:10.055Z,99.99
2018-04-25T06:03:09.971Z,99.99
2018-04-25T06:04:09.877Z,99.99
2018-04-25T06:05:09.821Z,99.99
2018-04-25T06:06:09.700Z,99.99
2018-04-25T06:07:09.615Z,99.99
2018-04-25T06:08:09.613Z,99.99
2018-04-25T06:09:09.434Z,99.99
2018-04-25T06:10:09.349Z,99.99
2018-04-25T06:11:09.280Z,99.99
2018-04-25T06:12:09.162Z,99.99
2018-04-25T06:13:09.073Z,99.99
2018-04-25T06:14:08.985Z,99.99
2018-04-25T06:15:08.992Z,99.99
2018-04-25T06:16:08.839Z,99.99
2018-04-25T06:17:08.718Z,99.99
2018-04-25T06:18:08.629Z,99.99
2018-04-25T06:19:09.391Z,99.99
2018-04-25T06:20:08.453Z,99.99
2018-04-25T06:21:08.405Z,99.99
2018-04-25T06:22:08.368Z,99.99
2018-04-25T06:23:08.181Z,99.99
2018-04-25T06:24:08.094Z,99.99
2018-04-25T06:25:08.005Z,99.99
2018-04-25T06:26:07.948Z,99.99
2018-04-25T06:27:07.829Z,99.99
2018-04-25T06:28:07.766Z,99.99
2018-04-25T06:29:07.746Z,99.99
2018-04-25T06:30:07.559Z,99.99
2018-04-25T06:31:07.502Z,99.99
2018-04-25T06:32:07.385Z,99.99
2018-04-25T06:33:07.295Z,99.99
2018-04-25T06:34:07.205Z,99.99
2018-04-25T06:35:07.124Z,99.99
2018-04-25T06:36:07.927Z,99.99
2018-04-25T06:37:06.937Z,99.99
2018-04-25T06:38:06.849Z,99.99
2018-04-25T06:39:06.760Z,99.19
2018-04-25T06:40:06.674Z,99.19
2018-04-25T06:41:06.613Z,99.99
2018-04-25T06:42:06.500Z,98.09
2018-04-25T06:43:06.499Z,97.66
2018-04-25T06:44:06.320Z,97.80
2018-04-25T06:45:06.260Z,98.38
2018-04-25T06:46:06.171Z,99.67
2018-04-25T06:47:06.055Z,99.77
2018-04-25T06:48:05.966Z,99.29
2018-04-25T06:49:05.886Z,99.58
2018-04-25T06:50:05.889Z,99.67
2018-04-25T06:51:05.733Z,97.42
2018-04-25T06:52:05.619Z,97.61
2018-04-25T06:53:05.528Z,97.14
2018-04-25T06:54:05.443Z,96.80
2018-04-25T06:55:05.357Z,95.07
2018-04-25T06:56:05.303Z,93.40
2018-04-25T06:57:05.181Z,92.54
2018-04-25T06:58:05.095Z,91.14
2018-04-25T06:59:05.009Z,89.99
2018-04-25T07:00:04.918Z,89.22
2018-04-25T07:01:04.863Z,89.41
2018-04-25T07:02:04.746Z,88.79
2018-04-25T07:03:04.661Z,88.17
2018-04-25T07:04:04.683Z,88.79
2018-04-25T07:05:04.488Z,87.45
2018-04-25T07:06:04.438Z,89.51
2018-04-25T07:07:04.318Z,89.47
2018-04-25T07:08:04.305Z,88.65
2018-04-25T07:09:04.146Z,88.94
2018-04-25T07:10:04.187Z,90.38
2018-04-25T07:11:04.007Z,90.09
2018-04-25T07:12:03.886Z,89.13
2018-04-25T07:13:03.804Z,89.47
2018-04-25T07:14:03.776Z,91.10
2018-04-25T07:15:03.627Z,89.86
2018-04-25T07:16:03.551Z,87.94
2018-04-25T07:17:03.484Z,88.80
2018-04-25T07:18:03.367Z,88.51
2018-04-25T07:19:03.285Z,89.18
2018-04-25T07:20:03.196Z,89.04
2018-04-25T07:21:03.112Z,88.17
2018-04-25T07:22:03.052Z,88.70
2018-04-25T07:23:02.937Z,86.54
2018-04-25T07:24:02.848Z,84.42
2018-04-25T07:25:02.765Z,84.61
2018-04-25T07:26:02.681Z,83.51
2018-04-25T07:27:02.622Z,83.18
2018-04-25T07:28:02.508Z,83.65
2018-04-25T07:29:02.419Z,83.08
2018-04-25T07:30:02.332Z,82.89
2018-04-25T07:31:02.248Z,82.26
2018-04-25T07:32:02.190Z,82.31
2018-04-25T07:33:02.072Z,82.41
2018-04-25T07:34:01.986Z,80.78
2018-04-25T07:35:01.907Z,80.87
2018-04-25T07:36:01.814Z,80.49
2018-04-25T07:37:01.759Z,80.64
2018-04-25T07:38:01.642Z,81.74
2018-04-25T07:39:01.556Z,81.07
2018-04-25T07:40:01.472Z,81.07
2018-04-25T07:41:01.385Z,80.97
2018-04-25T07:42:01.408Z,82.12
2018-04-25T07:43:01.216Z,82.98
2018-04-25T07:44:02.853Z,83.04
2018-04-25T07:45:01.040Z,83.76
2018-04-25T07:46:00.959Z,84.34
2018-04-25T07:47:00.901Z,84.77
2018-04-25T07:48:00.779Z,82.98
2018-04-25T07:49:00.694Z,82.21
2018-04-25T07:50:00.612Z,81.26
2018-04-25T07:51:00.523Z,81.59
2018-04-25T07:52:01.392Z,81.10
2018-04-25T07:53:00.352Z,81.01
2018-04-25T07:54:00.265Z,81.59
2018-04-25T07:55:00.180Z,81.10
2018-04-25T07:56:00.098Z,79.96
2018-04-25T07:57:00.038Z,80.63
2018-04-25T07:57:59.922Z,80.15
2018-04-25T07:58:59.937Z,80.82
2018-04-25T07:59:59.747Z,80.05
2018-04-25T08:00:59.664Z,80.91
2018-04-25T08:01:59.602Z,79.86
2018-04-25T08:02:59.492Z,79.61
2018-04-25T08:03:59.405Z,77.88
2018-04-25T08:04:59.320Z,76.67
2018-04-25T08:05:59.300Z,77.63
2018-04-25T08:06:59.177Z,75.88
2018-04-25T08:07:59.058Z,72.80
2018-04-25T08:08:58.975Z,72.84
2018-04-25T08:09:58.891Z,70.34
2018-04-25T08:10:58.807Z,69.41
2018-04-25T08:11:58.747Z,68.77
2018-04-25T08:12:58.635Z,67.90
2018-04-25T08:13:58.551Z,69.02
2018-04-25T08:14:58.465Z,68.93
2018-04-25T08:15:58.379Z,68.44
2018-04-25T08:16:58.326Z,68.16
2018-04-25T08:17:58.235Z,66.42
2018-04-25T08:18:58.130Z,65.59
2018-04-25T08:19:58.045Z,66.36
2018-04-25T08:20:57.962Z,64.53
2018-04-25T08:21:57.884Z,64.53
2018-04-25T08:22:57.826Z,64.25
2018-04-25T08:23:57.709Z,64.47
2018-04-25T08:24:57.626Z,63.02
2018-04-25T08:25:57.544Z,63.31
2018-04-25T08:26:57.558Z,64.05
2018-04-25T08:27:57.408Z,66.07
2018-04-25T08:28:57.296Z,66.17
2018-04-25T08:29:57.209Z,65.59
2018-04-25T08:30:57.129Z,63.95
2018-04-25T08:31:57.043Z,64.95
2018-04-25T08:32:56.989Z,64.34
2018-04-25T08:33:56.877Z,63.28
2018-04-25T08:34:56.796Z,64.50
2018-04-25T08:35:56.711Z,65.85
2018-04-25T08:36:56.633Z,66.62
2018-04-25T08:37:56.577Z,66.20
2018-04-25T08:38:56.468Z,66.36
2018-04-25T08:39:56.381Z,66.39
2018-04-25T08:40:56.300Z,65.27
2018-04-25T08:41:56.218Z,64.25
2018-04-25T08:42:56.172Z,64.73
2018-04-25T08:43:56.051Z,64.69
2018-04-25T08:44:56.036Z,62.99
2018-04-25T08:45:55.883Z,62.99
2018-04-25T08:46:55.806Z,62.73
2018-04-25T08:47:55.746Z,62.00
2018-04-25T08:48:55.923Z,61.58
2018-04-25T08:49:55.554Z,63.51
2018-04-25T08:50:55.470Z,65.11
2018-04-25T08:51:55.394Z,64.98
2018-04-25T08:52:55.332Z,63.09
2018-04-25T08:53:55.224Z,64.47
2018-04-25T08:54:55.153Z,65.72
2018-04-25T08:55:55.155Z,66.74
2018-04-25T08:56:54.973Z,67.38
2018-04-25T08:57:54.928Z,66.97
2018-04-25T08:58:54.808Z,65.20
2018-04-25T08:59:54.727Z,65.40
2018-04-25T09:00:56.379Z,65.11
2018-04-25T09:01:54.561Z,66.81
2018-04-25T09:02:54.599Z,66.33
2018-04-25T09:03:54.393Z,64.02
2018-04-25T09:04:54.308Z,63.22
2018-04-25T09:05:54.255Z,62.74
2018-04-25T09:06:54.148Z,62.96
2018-04-25T09:07:54.089Z,62.90
2018-04-25T09:08:53.978Z,62.90
2018-04-25T09:09:53.984Z,64.31
2018-04-25T09:10:53.812Z,65.37
2018-04-25T09:11:53.726Z,65.46
2018-04-25T09:12:53.671Z,66.77
2018-04-25T09:13:53.561Z,65.53
2018-04-25T09:14:53.475Z,65.53
2018-04-25T09:15:53.391Z,66.30
2018-04-25T09:16:53.395Z,66.36
2018-04-25T09:17:53.258Z,67.61
2018-04-25T09:18:53.141Z,66.00
2018-04-25T09:19:53.055Z,65.27
2018-04-25T09:20:52.974Z,64.79
2018-04-25T09:21:52.892Z,64.40
2018-04-25T09:22:52.805Z,64.89
2018-04-25T09:23:52.841Z,65.14
2018-04-25T09:24:52.635Z,63.60
2018-04-25T09:25:52.551Z,64.25
2018-04-25T09:26:52.465Z,66.74
2018-04-25T09:27:52.380Z,67.99
2018-04-25T09:28:52.323Z,68.37
2018-04-25T09:29:52.213Z,67.61
2018-04-25T09:30:52.221Z,67.70
2018-04-25T09:31:52.041Z,69.46
2018-04-25T09:32:51.959Z,66.91
2018-04-25T09:33:51.905Z,65.17
2018-04-25T09:34:51.789Z,65.69
2018-04-25T09:35:51.703Z,67.10
2018-04-25T09:36:51.621Z,65.75
2018-04-25T09:37:51.623Z,64.22
2018-04-25T09:38:51.486Z,65.05
2018-04-25T09:39:51.363Z,67.16
2018-04-25T09:40:51.281Z,66.68
2018-04-25T09:41:51.197Z,66.10
2018-04-25T09:42:51.112Z,65.43
2018-04-25T09:43:51.057Z,64.95
2018-04-25T09:44:51.034Z,65.72
2018-04-25T09:45:50.882Z,65.11
2018-04-25T09:46:50.774Z,65.40
2018-04-25T09:47:50.689Z,65.49
2018-04-25T09:48:50.632Z,66.03
2018-04-25T09:49:50.520Z,68.34
2018-04-25T09:50:50.447Z,68.05
2018-04-25T09:51:50.396Z,68.34
2018-04-25T09:52:50.262Z,69.62
2018-04-25T09:53:50.207Z,68.05
2018-04-25T09:54:50.092Z,68.34
2018-04-25T09:55:50.009Z,67.99
2018-04-25T09:56:49.920Z,68.18
2018-04-25T09:57:49.865Z,67.61
2018-04-25T09:58:49.786Z,68.08
2018-04-25T09:59:49.669Z,69.24
2018-04-25T10:00:49.637Z,69.14
2018-04-25T10:01:49.500Z,66.17
2018-04-25T10:02:49.412Z,66.07
2018-04-25T10:03:49.359Z,63.82
2018-04-25T10:04:49.239Z,62.74
2018-04-25T10:05:49.155Z,64.95
2018-04-25T10:06:49.070Z,66.27
2018-04-25T10:07:48.983Z,67.19
2018-04-25T10:08:48.927Z,66.04
2018-04-25T10:09:48.815Z,66.42
2018-04-25T10:10:48.740Z,66.49
2018-04-25T10:11:48.646Z,66.97
2018-04-25T10:12:48.562Z,65.53
2018-04-25T10:13:48.501Z,65.81
2018-04-25T10:14:48.391Z,65.56
2018-04-25T10:15:48.304Z,64.89
2018-04-25T10:16:48.220Z,65.72
2018-04-25T10:17:48.133Z,65.81
2018-04-25T10:18:48.084Z,67.45
2018-04-25T10:19:47.966Z,67.74
2018-04-25T10:20:47.880Z,66.87
2018-04-25T10:21:47.798Z,67.51
2018-04-25T10:22:47.712Z,68.95
2018-04-25T10:23:47.627Z,68.08
2018-04-25T10:24:47.572Z,68.37
2018-04-25T10:28:54.306Z,68.08
2018-04-25T10:29:54.192Z,69.05
2018-04-25T10:30:54.196Z,70.17
2018-04-25T10:31:54.077Z,72.47
2018-04-25T10:32:53.937Z,72.95
2018-04-25T10:33:53.881Z,73.24
2018-04-25T10:34:53.769Z,73.87
2018-04-25T10:35:53.682Z,73.33
2018-04-25T10:36:53.594Z,73.77
2018-04-25T10:37:53.508Z,73.58
2018-04-25T10:38:53.496Z,74.64
2018-04-25T10:41:24.781Z,75.02
2018-04-25T10:42:24.658Z,74.54
2018-04-25T10:43:24.574Z,74.19
2018-04-25T10:44:24.899Z,74.16
2018-04-25T10:45:24.401Z,71.83
2018-04-25T10:46:24.315Z,71.64
2018-04-25T10:47:24.229Z,69.60
2018-04-25T10:48:24.144Z,68.57
2018-04-25T10:49:24.092Z,66.20
2018-04-25T10:50:23.973Z,65.53
2018-04-25T10:51:23.995Z,65.24
2018-04-25T10:52:23.799Z,67.22
2018-04-25T10:53:23.718Z,66.84
2018-04-25T10:54:23.661Z,65.08
2018-04-25T10:55:23.579Z,65.37
2018-04-25T10:56:23.462Z,65.94
2018-04-25T10:57:23.388Z,66.23
2018-04-25T10:58:23.291Z,66.49
2018-04-25T10:59:23.236Z,67.64
2018-04-25T11:00:23.122Z,69.24
2018-04-25T11:01:23.036Z,69.81
2018-04-25T11:02:22.972Z,69.53
2018-04-25T11:03:22.865Z,69.68
2018-04-25T11:04:22.835Z,68.34
2018-04-25T11:05:22.695Z,68.15
2018-04-25T11:06:22.610Z,69.40
2018-04-25T11:07:22.566Z,69.26
2018-04-25T11:08:22.453Z,69.46
2018-04-25T11:09:22.355Z,70.13
2018-04-25T11:10:22.300Z,70.13
2018-04-25T11:11:22.184Z,70.70
2018-04-25T11:12:22.099Z,70.23
2018-04-25T11:13:22.011Z,71.15
2018-04-25T11:14:21.930Z,70.23
2018-04-25T11:15:21.874Z,70.57
2018-04-25T11:16:21.758Z,71.44
2018-04-25T11:17:21.673Z,73.07
2018-04-25T11:18:21.584Z,71.82
2018-04-25T11:19:21.501Z,72.30
2018-04-25T11:20:21.452Z,73.83
2018-04-25T11:21:21.326Z,72.30
2018-04-25T11:22:21.242Z,72.01
2018-04-25T11:23:21.153Z,72.01
2018-04-25T11:24:21.067Z,72.88
2018-04-25T11:25:21.110Z,73.16
2018-04-25T11:26:20.892Z,72.97
2018-04-25T11:27:20.803Z,72.20
2018-04-25T11:28:20.717Z,73.07
2018-04-25T11:29:20.632Z,71.82
2018-04-25T11:30:20.573Z,71.86
2018-04-25T11:31:20.462Z,73.39
2018-04-25T11:32:20.467Z,72.14
2018-04-25T11:33:20.282Z,69.59
2018-04-25T11:34:20.204Z,70.07
2018-04-25T11:35:20.143Z,70.74
2018-04-25T11:36:20.024Z,69.62
2018-04-25T11:37:19.935Z,69.72
2018-04-25T11:38:19.854Z,69.34
2018-04-25T11:39:19.857Z,69.62
2018-04-25T11:40:19.708Z,68.47
2018-04-25T11:41:19.595Z,68.51
2018-04-25T11:42:19.516Z,68.51
2018-04-25T11:43:19.427Z,66.39
2018-04-25T11:44:19.335Z,67.41
2018-04-25T11:45:19.285Z,67.96
2018-04-25T11:46:19.253Z,67.96
2018-04-25T11:47:19.184Z,68.88
2018-04-25T11:48:18.989Z,69.84
2018-04-25T11:49:18.903Z,71.19
2018-04-25T11:50:18.849Z,71.05
2018-04-25T11:51:18.728Z,72.01
2018-04-25T11:52:18.643Z,72.20
2018-04-25T11:53:18.653Z,71.44
2018-04-25T11:54:18.471Z,71.34
2018-04-25T11:55:18.418Z,72.01
2018-04-25T11:56:18.297Z,72.49
2018-04-25T11:57:18.211Z,73.07
2018-04-25T11:58:18.123Z,73.35
2018-04-25T11:59:18.048Z,73.45
2018-04-25T12:00:18.077Z,73.35
2018-04-25T12:01:17.867Z,72.78
2018-04-25T12:02:17.781Z,72.63
2018-04-25T12:03:17.692Z,72.33
2018-04-25T12:04:17.605Z,71.37
2018-04-25T12:05:17.549Z,71.95
2018-04-25T12:06:17.431Z,70.99
2018-04-25T12:07:17.437Z,70.61
2018-04-25T12:08:17.260Z,70.04
2018-04-25T12:09:17.169Z,66.39
2018-04-25T12:10:17.117Z,65.59
2018-04-25T12:11:16.998Z,66.27
2018-04-25T12:12:16.956Z,66.36
2018-04-25T12:13:16.892Z,64.12
2018-04-25T12:14:16.839Z,65.05
2018-04-25T12:15:16.684Z,64.82
2018-04-25T12:16:16.568Z,65.43
2018-04-25T12:17:16.481Z,66.87
2018-04-25T12:18:16.396Z,66.49
2018-04-25T12:19:16.311Z,64.92
2018-04-25T12:20:16.223Z,65.20
2018-04-25T12:21:16.261Z,62.80
2018-04-25T12:22:16.053Z,61.87
2018-04-25T12:23:15.967Z,60.81
2018-04-25T12:24:15.889Z,62.03
2018-04-25T12:25:15.798Z,61.84
2018-04-25T12:26:15.740Z,62.71
2018-04-25T12:27:15.715Z,62.68
2018-04-25T12:28:15.540Z,63.64
2018-04-25T12:29:15.454Z,64.98
2018-04-25T12:30:15.374Z,65.17
2018-04-25T12:31:15.316Z,65.37
2018-04-25T12:32:15.198Z,65.08
2018-04-25T12:33:15.111Z,65.20
2018-04-25T12:34:15.029Z,63.02
2018-04-25T12:35:14.950Z,60.10
2018-04-25T12:36:14.889Z,59.84
2018-04-25T12:37:14.774Z,59.07
2018-04-25T12:38:14.688Z,59.40
2018-04-25T12:39:14.604Z,59.69
2018-04-25T12:40:14.519Z,58.95
2018-04-25T12:41:14.496Z,58.60
2018-04-25T12:42:14.351Z,58.27
2018-04-25T12:43:14.268Z,58.65
2018-04-25T12:44:14.185Z,59.27
2018-04-25T12:45:14.100Z,59.15
2018-04-25T12:46:14.051Z,60.43
2018-04-25T12:47:13.973Z,59.99
2018-04-25T12:48:13.848Z,60.94
2018-04-25T12:49:13.768Z,61.61
2018-04-25T12:50:13.679Z,60.81
2018-04-25T12:51:13.626Z,61.77
2018-04-25T12:52:13.512Z,59.75
2018-04-25T12:53:13.447Z,61.04
2018-04-25T12:54:13.345Z,59.69
2018-04-25T12:55:13.262Z,59.30
2018-04-25T12:56:13.208Z,58.72